sensor_id;sensor_type;location;lat;lon;timestamp;P1;durP1;ratioP1;P2;durP2;ratioP2
6269;SDS011;3168;51.684;6.954;2024-01-30T00:00:01;10.60;;;7.63;;
6269;SDS011;3168;51.684;6.954;2024-01-30T00:02:27;8.13;;;7.32;;
6269;SDS011;3168;51.684;6.954;2024-01-30T00:04:53;9.43;;;7.10;;
6269;SDS011;3168;51.684;6.954;2024-01-30T00:07:19;7.93;;;7.23;;
6269;SDS011;3168;51.684;6.954;2024-01-30T00:09:46;8.27;;;7.37;;
6269;SDS011;3168;51.684;6.954;2024-01-30T00:12:10;8.30;;;7.47;;
6269;SDS011;3168;51.684;6.954;2024-01-30T00:14:36;7.00;;;6.30;;
6269;SDS011;3168;51.684;6.954;2024-01-30T00:17:03;8.70;;;7.70;;
6269;SDS011;3168;51.684;6.954;2024-01-30T00:19:29;8.13;;;7.33;;
6269;SDS011;3168;51.684;6.954;2024-01-30T00:21:55;12.60;;;6.40;;
6269;SDS011;3168;51.684;6.954;2024-01-30T00:24:21;11.53;;;8.60;;
6269;SDS011;3168;51.684;6.954;2024-01-30T00:26:46;7.13;;;6.60;;
6269;SDS011;3168;51.684;6.954;2024-01-30T00:29:12;7.97;;;7.27;;
6269;SDS011;3168;51.684;6.954;2024-01-30T00:31:38;7.77;;;7.07;;
6269;SDS011;3168;51.684;6.954;2024-01-30T00:34:04;10.33;;;7.67;;
6269;SDS011;3168;51.684;6.954;2024-01-30T00:36:30;10.83;;;8.47;;
6269;SDS011;3168;51.684;6.954;2024-01-30T00:38:56;10.87;;;8.00;;
6269;SDS011;3168;51.684;6.954;2024-01-30T00:41:21;6.60;;;6.00;;
6269;SDS011;3168;51.684;6.954;2024-01-30T00:43:47;7.07;;;6.57;;
6269;SDS011;3168;51.684;6.954;2024-01-30T00:46:13;6.77;;;6.30;;
6269;SDS011;3168;51.684;6.954;2024-01-30T00:48:39;9.30;;;6.03;;
6269;SDS011;3168;51.684;6.954;2024-01-30T00:51:05;9.30;;;6.30;;
6269;SDS011;3168;51.684;6.954;2024-01-30T00:53:31;14.00;;;8.30;;
6269;SDS011;3168;51.684;6.954;2024-01-30T00:55:57;8.53;;;6.07;;
6269;SDS011;3168;51.684;6.954;2024-01-30T00:58:22;8.03;;;7.17;;
6269;SDS011;3168;51.684;6.954;2024-01-30T01:00:48;7.23;;;6.13;;
6269;SDS011;3168;51.684;6.954;2024-01-30T01:03:14;8.27;;;7.43;;
6269;SDS011;3168;51.684;6.954;2024-01-30T01:05:40;6.73;;;6.03;;
6269;SDS011;3168;51.684;6.954;2024-01-30T01:08:06;6.63;;;6.03;;
6269;SDS011;3168;51.684;6.954;2024-01-30T01:10:32;17.23;;;7.27;;
6269;SDS011;3168;51.684;6.954;2024-01-30T01:12:58;6.37;;;5.83;;
6269;SDS011;3168;51.684;6.954;2024-01-30T01:15:23;6.17;;;5.57;;
6269;SDS011;3168;51.684;6.954;2024-01-30T01:17:49;7.70;;;7.00;;
6269;SDS011;3168;51.684;6.954;2024-01-30T01:20:15;7.40;;;6.70;;
6269;SDS011;3168;51.684;6.954;2024-01-30T01:22:41;8.03;;;7.23;;
6269;SDS011;3168;51.684;6.954;2024-01-30T01:25:08;7.10;;;6.40;;
6269;SDS011;3168;51.684;6.954;2024-01-30T01:27:33;10.73;;;7.00;;
6269;SDS011;3168;51.684;6.954;2024-01-30T01:29:58;7.50;;;6.80;;
6269;SDS011;3168;51.684;6.954;2024-01-30T01:32:24;8.43;;;6.20;;
6269;SDS011;3168;51.684;6.954;2024-01-30T01:34:51;5.67;;;5.27;;
6269;SDS011;3168;51.684;6.954;2024-01-30T01:37:17;6.33;;;5.70;;
6269;SDS011;3168;51.684;6.954;2024-01-30T01:39:43;4.77;;;4.43;;
6269;SDS011;3168;51.684;6.954;2024-01-30T01:42:08;9.40;;;6.90;;
6269;SDS011;3168;51.684;6.954;2024-01-30T01:44:34;10.90;;;6.23;;
6269;SDS011;3168;51.684;6.954;2024-01-30T01:47:00;6.17;;;5.73;;
6269;SDS011;3168;51.684;6.954;2024-01-30T01:49:27;7.40;;;6.80;;
6269;SDS011;3168;51.684;6.954;2024-01-30T01:51:52;8.17;;;6.97;;
6269;SDS011;3168;51.684;6.954;2024-01-30T01:54:18;7.27;;;6.40;;
6269;SDS011;3168;51.684;6.954;2024-01-30T01:56:44;7.07;;;6.40;;
6269;SDS011;3168;51.684;6.954;2024-01-30T01:59:10;9.00;;;8.20;;
6269;SDS011;3168;51.684;6.954;2024-01-30T02:01:36;6.67;;;6.07;;
6269;SDS011;3168;51.684;6.954;2024-01-30T02:04:01;8.83;;;6.90;;
6269;SDS011;3168;51.684;6.954;2024-01-30T02:06:27;7.70;;;6.90;;
6269;SDS011;3168;51.684;6.954;2024-01-30T02:08:53;6.57;;;6.07;;
6269;SDS011;3168;51.684;6.954;2024-01-30T02:11:20;7.03;;;5.87;;
6269;SDS011;3168;51.684;6.954;2024-01-30T02:13:46;5.77;;;5.03;;
6269;SDS011;3168;51.684;6.954;2024-01-30T02:16:12;7.50;;;6.10;;
6269;SDS011;3168;51.684;6.954;2024-01-30T02:18:38;6.47;;;5.77;;
6269;SDS011;3168;51.684;6.954;2024-01-30T02:21:04;10.60;;;5.80;;
6269;SDS011;3168;51.684;6.954;2024-01-30T02:23:30;10.70;;;6.53;;
6269;SDS011;3168;51.684;6.954;2024-01-30T02:25:56;9.77;;;6.00;;
6269;SDS011;3168;51.684;6.954;2024-01-30T02:28:22;6.97;;;6.27;;
6269;SDS011;3168;51.684;6.954;2024-01-30T02:30:48;6.87;;;6.27;;
6269;SDS011;3168;51.684;6.954;2024-01-30T02:33:13;7.47;;;6.87;;
6269;SDS011;3168;51.684;6.954;2024-01-30T02:35:39;6.70;;;6.20;;
6269;SDS011;3168;51.684;6.954;2024-01-30T02:38:05;7.67;;;7.07;;
6269;SDS011;3168;51.684;6.954;2024-01-30T02:40:31;5.90;;;5.37;;
6269;SDS011;3168;51.684;6.954;2024-01-30T02:42:58;7.23;;;6.70;;
6269;SDS011;3168;51.684;6.954;2024-01-30T02:45:23;5.67;;;5.30;;
6269;SDS011;3168;51.684;6.954;2024-01-30T02:47:49;8.00;;;7.30;;
6269;SDS011;3168;51.684;6.954;2024-01-30T02:50:15;11.83;;;7.90;;
6269;SDS011;3168;51.684;6.954;2024-01-30T02:52:41;6.97;;;6.40;;
6269;SDS011;3168;51.684;6.954;2024-01-30T02:55:07;7.23;;;6.60;;
6269;SDS011;3168;51.684;6.954;2024-01-30T02:57:33;7.67;;;6.90;;
6269;SDS011;3168;51.684;6.954;2024-01-30T02:59:59;6.03;;;5.43;;
6269;SDS011;3168;51.684;6.954;2024-01-30T03:02:25;8.95;;;6.45;;
6269;SDS011;3168;51.684;6.954;2024-01-30T03:04:51;9.13;;;6.80;;
6269;SDS011;3168;51.684;6.954;2024-01-30T03:07:16;8.70;;;5.80;;
6269;SDS011;3168;51.684;6.954;2024-01-30T03:09:42;6.83;;;6.30;;
6269;SDS011;3168;51.684;6.954;2024-01-30T03:12:09;11.80;;;7.87;;
6269;SDS011;3168;51.684;6.954;2024-01-30T03:14:35;16.77;;;6.63;;
6269;SDS011;3168;51.684;6.954;2024-01-30T03:17:00;12.73;;;8.17;;
6269;SDS011;3168;51.684;6.954;2024-01-30T03:19:26;9.17;;;7.50;;
6269;SDS011;3168;51.684;6.954;2024-01-30T03:21:52;6.77;;;6.17;;
6269;SDS011;3168;51.684;6.954;2024-01-30T03:24:18;11.53;;;7.50;;
6269;SDS011;3168;51.684;6.954;2024-01-30T03:26:44;8.77;;;6.80;;
6269;SDS011;3168;51.684;6.954;2024-01-30T03:29:10;8.97;;;6.87;;
6269;SDS011;3168;51.684;6.954;2024-01-30T03:31:35;8.13;;;7.00;;
6269;SDS011;3168;51.684;6.954;2024-01-30T03:34:01;6.90;;;6.30;;
6269;SDS011;3168;51.684;6.954;2024-01-30T03:36:27;7.13;;;6.70;;
6269;SDS011;3168;51.684;6.954;2024-01-30T03:38:53;9.20;;;6.80;;
6269;SDS011;3168;51.684;6.954;2024-01-30T03:41:19;7.53;;;5.87;;
6269;SDS011;3168;51.684;6.954;2024-01-30T03:43:44;5.17;;;4.77;;
6269;SDS011;3168;51.684;6.954;2024-01-30T03:46:12;6.70;;;6.10;;
6269;SDS011;3168;51.684;6.954;2024-01-30T03:48:37;6.57;;;5.97;;
6269;SDS011;3168;51.684;6.954;2024-01-30T03:51:03;4.63;;;4.27;;
6269;SDS011;3168;51.684;6.954;2024-01-30T03:53:29;5.73;;;5.17;;
6269;SDS011;3168;51.684;6.954;2024-01-30T03:55:55;8.20;;;6.90;;
6269;SDS011;3168;51.684;6.954;2024-01-30T03:58:21;6.90;;;6.30;;
6269;SDS011;3168;51.684;6.954;2024-01-30T04:00:47;19.83;;;6.00;;
6269;SDS011;3168;51.684;6.954;2024-01-30T04:03:14;6.18;;;5.37;;
6269;SDS011;3168;51.684;6.954;2024-01-30T04:05:38;5.17;;;4.87;;
6269;SDS011;3168;51.684;6.954;2024-01-30T04:08:04;11.33;;;7.27;;
6269;SDS011;3168;51.684;6.954;2024-01-30T04:10:31;8.67;;;7.77;;
6269;SDS011;3168;51.684;6.954;2024-01-30T04:12:56;9.20;;;5.87;;
6269;SDS011;3168;51.684;6.954;2024-01-30T04:15:22;6.00;;;5.47;;
6269;SDS011;3168;51.684;6.954;2024-01-30T04:17:48;6.33;;;5.83;;
6269;SDS011;3168;51.684;6.954;2024-01-30T04:20:14;9.50;;;6.77;;
6269;SDS011;3168;51.684;6.954;2024-01-30T04:22:40;6.27;;;5.77;;
6269;SDS011;3168;51.684;6.954;2024-01-30T04:25:06;8.60;;;6.53;;
6269;SDS011;3168;51.684;6.954;2024-01-30T04:27:32;6.50;;;5.47;;
6269;SDS011;3168;51.684;6.954;2024-01-30T04:29:58;7.67;;;6.87;;
6269;SDS011;3168;51.684;6.954;2024-01-30T04:32:24;11.10;;;6.30;;
6269;SDS011;3168;51.684;6.954;2024-01-30T04:34:50;6.93;;;6.20;;
6269;SDS011;3168;51.684;6.954;2024-01-30T04:37:16;13.67;;;8.37;;
6269;SDS011;3168;51.684;6.954;2024-01-30T04:39:42;7.43;;;6.13;;
6269;SDS011;3168;51.684;6.954;2024-01-30T04:42:08;7.53;;;6.90;;
6269;SDS011;3168;51.684;6.954;2024-01-30T04:44:34;9.60;;;7.77;;
6269;SDS011;3168;51.684;6.954;2024-01-30T04:47:00;12.53;;;7.73;;
6269;SDS011;3168;51.684;6.954;2024-01-30T04:49:26;8.27;;;6.90;;
6269;SDS011;3168;51.684;6.954;2024-01-30T04:51:52;5.77;;;5.27;;
6269;SDS011;3168;51.684;6.954;2024-01-30T04:54:17;18.47;;;8.90;;
6269;SDS011;3168;51.684;6.954;2024-01-30T04:56:43;11.07;;;7.57;;
6269;SDS011;3168;51.684;6.954;2024-01-30T04:59:10;10.27;;;7.20;;
6269;SDS011;3168;51.684;6.954;2024-01-30T05:01:36;7.50;;;6.77;;
6269;SDS011;3168;51.684;6.954;2024-01-30T05:04:02;9.83;;;7.03;;
6269;SDS011;3168;51.684;6.954;2024-01-30T05:06:28;9.90;;;7.53;;
6269;SDS011;3168;51.684;6.954;2024-01-30T05:08:54;7.80;;;6.50;;
6269;SDS011;3168;51.684;6.954;2024-01-30T05:11:20;8.27;;;5.50;;
6269;SDS011;3168;51.684;6.954;2024-01-30T05:13:46;9.70;;;7.90;;
6269;SDS011;3168;51.684;6.954;2024-01-30T05:16:12;8.10;;;7.20;;
6269;SDS011;3168;51.684;6.954;2024-01-30T05:18:38;8.03;;;7.33;;
6269;SDS011;3168;51.684;6.954;2024-01-30T05:21:05;13.30;;;9.77;;
6269;SDS011;3168;51.684;6.954;2024-01-30T05:23:30;12.53;;;7.33;;
6269;SDS011;3168;51.684;6.954;2024-01-30T05:25:56;9.67;;;8.60;;
6269;SDS011;3168;51.684;6.954;2024-01-30T05:28:22;7.20;;;6.60;;
6269;SDS011;3168;51.684;6.954;2024-01-30T05:30:48;9.10;;;8.10;;
6269;SDS011;3168;51.684;6.954;2024-01-30T05:33:15;8.23;;;6.83;;
6269;SDS011;3168;51.684;6.954;2024-01-30T05:35:41;11.83;;;9.07;;
6269;SDS011;3168;51.684;6.954;2024-01-30T05:38:06;13.90;;;8.80;;
6269;SDS011;3168;51.684;6.954;2024-01-30T05:40:32;11.27;;;7.37;;
6269;SDS011;3168;51.684;6.954;2024-01-30T05:42:58;7.93;;;7.00;;
6269;SDS011;3168;51.684;6.954;2024-01-30T05:45:24;7.77;;;7.07;;
6269;SDS011;3168;51.684;6.954;2024-01-30T05:47:50;6.50;;;5.70;;
6269;SDS011;3168;51.684;6.954;2024-01-30T05:50:17;8.43;;;6.47;;
6269;SDS011;3168;51.684;6.954;2024-01-30T05:52:43;6.57;;;6.10;;
6269;SDS011;3168;51.684;6.954;2024-01-30T05:55:09;11.17;;;7.60;;
6269;SDS011;3168;51.684;6.954;2024-01-30T05:57:36;11.40;;;6.53;;
6269;SDS011;3168;51.684;6.954;2024-01-30T06:00:02;7.53;;;6.83;;
6269;SDS011;3168;51.684;6.954;2024-01-30T06:02:29;7.45;;;6.00;;
6269;SDS011;3168;51.684;6.954;2024-01-30T06:04:55;10.47;;;7.87;;
6269;SDS011;3168;51.684;6.954;2024-01-30T06:07:20;8.57;;;7.07;;
6269;SDS011;3168;51.684;6.954;2024-01-30T06:09:46;8.70;;;6.93;;
6269;SDS011;3168;51.684;6.954;2024-01-30T06:12:12;16.03;;;8.00;;
6269;SDS011;3168;51.684;6.954;2024-01-30T06:14:38;13.57;;;8.47;;
6269;SDS011;3168;51.684;6.954;2024-01-30T06:17:04;18.23;;;7.40;;
6269;SDS011;3168;51.684;6.954;2024-01-30T06:19:30;7.60;;;6.87;;
6269;SDS011;3168;51.684;6.954;2024-01-30T06:21:56;13.67;;;9.23;;
6269;SDS011;3168;51.684;6.954;2024-01-30T06:24:23;10.83;;;8.63;;
6269;SDS011;3168;51.684;6.954;2024-01-30T06:26:48;17.10;;;7.70;;
6269;SDS011;3168;51.684;6.954;2024-01-30T06:29:15;11.47;;;7.03;;
6269;SDS011;3168;51.684;6.954;2024-01-30T06:31:41;12.80;;;8.60;;
6269;SDS011;3168;51.684;6.954;2024-01-30T06:34:07;9.40;;;7.20;;
6269;SDS011;3168;51.684;6.954;2024-01-30T06:36:33;12.47;;;7.43;;
6269;SDS011;3168;51.684;6.954;2024-01-30T06:38:59;8.00;;;6.80;;
6269;SDS011;3168;51.684;6.954;2024-01-30T06:41:25;6.87;;;6.30;;
6269;SDS011;3168;51.684;6.954;2024-01-30T06:43:52;8.07;;;6.53;;
6269;SDS011;3168;51.684;6.954;2024-01-30T06:46:24;5.37;;;5.10;;
6269;SDS011;3168;51.684;6.954;2024-01-30T06:48:55;5.43;;;4.97;;
6269;SDS011;3168;51.684;6.954;2024-01-30T06:51:21;6.50;;;5.93;;
6269;SDS011;3168;51.684;6.954;2024-01-30T06:53:47;7.33;;;6.50;;
6269;SDS011;3168;51.684;6.954;2024-01-30T06:56:14;11.03;;;6.40;;
6269;SDS011;3168;51.684;6.954;2024-01-30T06:58:40;7.77;;;5.63;;
6269;SDS011;3168;51.684;6.954;2024-01-30T07:01:06;6.73;;;5.70;;
6269;SDS011;3168;51.684;6.954;2024-01-30T07:03:32;8.80;;;6.35;;
6269;SDS011;3168;51.684;6.954;2024-01-30T07:05:58;6.80;;;6.10;;
6269;SDS011;3168;51.684;6.954;2024-01-30T07:08:24;7.37;;;5.20;;
6269;SDS011;3168;51.684;6.954;2024-01-30T07:10:50;5.60;;;5.10;;
6269;SDS011;3168;51.684;6.954;2024-01-30T07:13:16;5.70;;;5.20;;
6269;SDS011;3168;51.684;6.954;2024-01-30T07:15:42;18.40;;;7.40;;
6269;SDS011;3168;51.684;6.954;2024-01-30T07:18:07;7.90;;;7.30;;
6269;SDS011;3168;51.684;6.954;2024-01-30T07:20:33;9.30;;;8.30;;
6269;SDS011;3168;51.684;6.954;2024-01-30T07:22:59;10.90;;;8.60;;
6269;SDS011;3168;51.684;6.954;2024-01-30T07:25:25;7.43;;;6.83;;
6269;SDS011;3168;51.684;6.954;2024-01-30T07:27:51;14.03;;;7.80;;
6269;SDS011;3168;51.684;6.954;2024-01-30T07:30:17;10.13;;;6.20;;
6269;SDS011;3168;51.684;6.954;2024-01-30T07:32:43;10.33;;;8.50;;
6269;SDS011;3168;51.684;6.954;2024-01-30T07:35:09;10.20;;;8.70;;
6269;SDS011;3168;51.684;6.954;2024-01-30T07:37:35;9.20;;;8.30;;
6269;SDS011;3168;51.684;6.954;2024-01-30T07:40:01;13.33;;;9.00;;
6269;SDS011;3168;51.684;6.954;2024-01-30T07:42:27;6.53;;;5.80;;
6269;SDS011;3168;51.684;6.954;2024-01-30T07:44:53;7.90;;;6.23;;
6269;SDS011;3168;51.684;6.954;2024-01-30T07:47:19;7.93;;;7.37;;
6269;SDS011;3168;51.684;6.954;2024-01-30T07:49:45;9.93;;;6.17;;
6269;SDS011;3168;51.684;6.954;2024-01-30T07:52:11;8.00;;;6.67;;
6269;SDS011;3168;51.684;6.954;2024-01-30T07:54:39;15.03;;;10.30;;
6269;SDS011;3168;51.684;6.954;2024-01-30T08:02:41;4.87;;;4.47;;
6269;SDS011;3168;51.684;6.954;2024-01-30T08:05:07;6.10;;;4.50;;
6269;SDS011;3168;51.684;6.954;2024-01-30T08:07:33;6.00;;;5.37;;
6269;SDS011;3168;51.684;6.954;2024-01-30T08:09:59;4.60;;;4.30;;
6269;SDS011;3168;51.684;6.954;2024-01-30T08:12:25;12.10;;;6.20;;
6269;SDS011;3168;51.684;6.954;2024-01-30T08:14:51;5.17;;;4.77;;
6269;SDS011;3168;51.684;6.954;2024-01-30T08:17:17;5.90;;;4.53;;
6269;SDS011;3168;51.684;6.954;2024-01-30T08:19:42;4.90;;;4.60;;
6269;SDS011;3168;51.684;6.954;2024-01-30T08:22:08;6.37;;;4.60;;
6269;SDS011;3168;51.684;6.954;2024-01-30T08:24:35;5.67;;;5.20;;
6269;SDS011;3168;51.684;6.954;2024-01-30T08:27:01;5.90;;;5.43;;
6269;SDS011;3168;51.684;6.954;2024-01-30T08:29:27;5.87;;;5.20;;
6269;SDS011;3168;51.684;6.954;2024-01-30T08:31:53;5.77;;;5.33;;
6269;SDS011;3168;51.684;6.954;2024-01-30T08:34:19;5.50;;;4.40;;
6269;SDS011;3168;51.684;6.954;2024-01-30T08:36:45;18.73;;;4.90;;
6269;SDS011;3168;51.684;6.954;2024-01-30T08:39:18;3.67;;;3.57;;
6269;SDS011;3168;51.684;6.954;2024-01-30T08:41:46;4.23;;;3.93;;
6269;SDS011;3168;51.684;6.954;2024-01-30T08:44:12;5.43;;;4.20;;
6269;SDS011;3168;51.684;6.954;2024-01-30T08:46:37;5.87;;;5.13;;
6269;SDS011;3168;51.684;6.954;2024-01-30T08:49:03;8.50;;;5.13;;
6269;SDS011;3168;51.684;6.954;2024-01-30T08:51:30;5.73;;;3.63;;
6269;SDS011;3168;51.684;6.954;2024-01-30T08:53:56;7.10;;;6.50;;
6269;SDS011;3168;51.684;6.954;2024-01-30T08:56:22;4.13;;;3.83;;
6269;SDS011;3168;51.684;6.954;2024-01-30T08:58:48;4.80;;;4.40;;
6269;SDS011;3168;51.684;6.954;2024-01-30T09:01:14;6.57;;;4.43;;
6269;SDS011;3168;51.684;6.954;2024-01-30T09:03:41;8.00;;;4.70;;
6269;SDS011;3168;51.684;6.954;2024-01-30T09:06:08;4.47;;;4.17;;
6269;SDS011;3168;51.684;6.954;2024-01-30T09:08:34;4.77;;;4.37;;
6269;SDS011;3168;51.684;6.954;2024-01-30T09:11:09;5.37;;;5.07;;
6269;SDS011;3168;51.684;6.954;2024-01-30T09:13:37;8.07;;;5.63;;
6269;SDS011;3168;51.684;6.954;2024-01-30T09:16:03;6.30;;;4.77;;
6269;SDS011;3168;51.684;6.954;2024-01-30T09:18:30;5.57;;;5.07;;
6269;SDS011;3168;51.684;6.954;2024-01-30T09:20:56;10.03;;;5.00;;
6269;SDS011;3168;51.684;6.954;2024-01-30T09:23:23;4.07;;;3.77;;
6269;SDS011;3168;51.684;6.954;2024-01-30T09:25:49;4.90;;;4.10;;
6269;SDS011;3168;51.684;6.954;2024-01-30T09:28:15;4.17;;;3.90;;
6269;SDS011;3168;51.684;6.954;2024-01-30T09:30:41;5.37;;;4.90;;
6269;SDS011;3168;51.684;6.954;2024-01-30T09:33:07;4.60;;;4.33;;
6269;SDS011;3168;51.684;6.954;2024-01-30T09:35:33;7.60;;;5.10;;
6269;SDS011;3168;51.684;6.954;2024-01-30T09:37:59;9.87;;;4.80;;
6269;SDS011;3168;51.684;6.954;2024-01-30T09:40:25;4.87;;;4.47;;
6269;SDS011;3168;51.684;6.954;2024-01-30T09:42:51;4.27;;;3.80;;
6269;SDS011;3168;51.684;6.954;2024-01-30T09:45:18;6.00;;;5.17;;
6269;SDS011;3168;51.684;6.954;2024-01-30T09:47:44;4.50;;;4.17;;
6269;SDS011;3168;51.684;6.954;2024-01-30T09:50:11;5.87;;;5.10;;
6269;SDS011;3168;51.684;6.954;2024-01-30T09:52:36;4.67;;;4.27;;
6269;SDS011;3168;51.684;6.954;2024-01-30T09:55:03;4.23;;;3.83;;
6269;SDS011;3168;51.684;6.954;2024-01-30T09:57:29;4.80;;;4.60;;
6269;SDS011;3168;51.684;6.954;2024-01-30T09:59:55;5.10;;;4.57;;
6269;SDS011;3168;51.684;6.954;2024-01-30T10:02:21;8.20;;;5.00;;
6269;SDS011;3168;51.684;6.954;2024-01-30T10:04:48;5.25;;;4.95;;
6269;SDS011;3168;51.684;6.954;2024-01-30T10:07:14;4.77;;;4.03;;
6269;SDS011;3168;51.684;6.954;2024-01-30T10:09:41;5.63;;;5.17;;
6269;SDS011;3168;51.684;6.954;2024-01-30T10:12:07;4.70;;;4.07;;
6269;SDS011;3168;51.684;6.954;2024-01-30T10:14:33;4.57;;;4.17;;
6269;SDS011;3168;51.684;6.954;2024-01-30T10:17:01;4.50;;;4.27;;
6269;SDS011;3168;51.684;6.954;2024-01-30T10:19:26;4.77;;;4.47;;
6269;SDS011;3168;51.684;6.954;2024-01-30T10:21:53;5.00;;;4.30;;
6269;SDS011;3168;51.684;6.954;2024-01-30T10:24:19;6.53;;;5.00;;
6269;SDS011;3168;51.684;6.954;2024-01-30T10:26:45;18.57;;;5.30;;
6269;SDS011;3168;51.684;6.954;2024-01-30T10:29:11;4.53;;;4.13;;
6269;SDS011;3168;51.684;6.954;2024-01-30T10:31:37;4.93;;;4.50;;
6269;SDS011;3168;51.684;6.954;2024-01-30T10:34:02;4.60;;;4.30;;
6269;SDS011;3168;51.684;6.954;2024-01-30T10:36:29;3.70;;;3.50;;
6269;SDS011;3168;51.684;6.954;2024-01-30T10:38:57;4.47;;;4.27;;
6269;SDS011;3168;51.684;6.954;2024-01-30T10:41:24;8.73;;;4.60;;
6269;SDS011;3168;51.684;6.954;2024-01-30T10:43:50;5.70;;;5.00;;
6269;SDS011;3168;51.684;6.954;2024-01-30T10:46:18;5.20;;;4.03;;
6269;SDS011;3168;51.684;6.954;2024-01-30T10:48:43;4.97;;;4.47;;
6269;SDS011;3168;51.684;6.954;2024-01-30T10:51:10;5.17;;;4.87;;
6269;SDS011;3168;51.684;6.954;2024-01-30T10:53:36;4.37;;;4.10;;
6269;SDS011;3168;51.684;6.954;2024-01-30T10:56:02;7.20;;;5.13;;
6269;SDS011;3168;51.684;6.954;2024-01-30T10:58:29;4.83;;;4.53;;
6269;SDS011;3168;51.684;6.954;2024-01-30T11:00:55;7.20;;;5.00;;
6269;SDS011;3168;51.684;6.954;2024-01-30T11:03:22;6.27;;;5.50;;
6269;SDS011;3168;51.684;6.954;2024-01-30T11:05:49;8.15;;;4.85;;
6269;SDS011;3168;51.684;6.954;2024-01-30T11:08:15;5.40;;;4.70;;
6269;SDS011;3168;51.684;6.954;2024-01-30T11:10:44;5.03;;;4.70;;
6269;SDS011;3168;51.684;6.954;2024-01-30T11:13:10;5.67;;;4.33;;
6269;SDS011;3168;51.684;6.954;2024-01-30T11:15:37;9.77;;;4.90;;
6269;SDS011;3168;51.684;6.954;2024-01-30T11:18:02;6.37;;;5.00;;
6269;SDS011;3168;51.684;6.954;2024-01-30T11:20:29;13.43;;;5.43;;
6269;SDS011;3168;51.684;6.954;2024-01-30T11:22:55;6.03;;;5.00;;
6269;SDS011;3168;51.684;6.954;2024-01-30T11:25:21;7.30;;;5.20;;
6269;SDS011;3168;51.684;6.954;2024-01-30T11:27:49;14.10;;;4.87;;
6269;SDS011;3168;51.684;6.954;2024-01-30T11:30:24;7.53;;;4.50;;
6269;SDS011;3168;51.684;6.954;2024-01-30T11:35:35;5.03;;;4.73;;
6269;SDS011;3168;51.684;6.954;2024-01-30T11:38:02;4.50;;;4.20;;
6269;SDS011;3168;51.684;6.954;2024-01-30T11:40:28;15.87;;;5.70;;
6269;SDS011;3168;51.684;6.954;2024-01-30T11:42:54;9.23;;;5.30;;
6269;SDS011;3168;51.684;6.954;2024-01-30T11:45:20;8.37;;;5.00;;
6269;SDS011;3168;51.684;6.954;2024-01-30T11:47:46;5.37;;;4.97;;
6269;SDS011;3168;51.684;6.954;2024-01-30T11:50:12;12.17;;;4.30;;
6269;SDS011;3168;51.684;6.954;2024-01-30T11:52:39;5.60;;;4.60;;
6269;SDS011;3168;51.684;6.954;2024-01-30T11:55:05;4.77;;;4.20;;
6269;SDS011;3168;51.684;6.954;2024-01-30T11:57:31;13.00;;;4.27;;
6269;SDS011;3168;51.684;6.954;2024-01-30T11:59:57;5.83;;;5.30;;
6269;SDS011;3168;51.684;6.954;2024-01-30T12:02:24;9.07;;;5.17;;
6269;SDS011;3168;51.684;6.954;2024-01-30T12:04:50;10.53;;;5.30;;
6269;SDS011;3168;51.684;6.954;2024-01-30T12:07:16;4.90;;;4.60;;
6269;SDS011;3168;51.684;6.954;2024-01-30T12:09:42;6.03;;;5.43;;
6269;SDS011;3168;51.684;6.954;2024-01-30T12:12:08;5.63;;;4.83;;
6269;SDS011;3168;51.684;6.954;2024-01-30T12:14:35;7.27;;;4.50;;
6269;SDS011;3168;51.684;6.954;2024-01-30T12:17:01;5.60;;;5.07;;
6269;SDS011;3168;51.684;6.954;2024-01-30T12:19:27;5.77;;;5.10;;
6269;SDS011;3168;51.684;6.954;2024-01-30T12:21:56;5.73;;;4.50;;
6269;SDS011;3168;51.684;6.954;2024-01-30T12:24:22;4.60;;;4.30;;
6269;SDS011;3168;51.684;6.954;2024-01-30T12:26:48;5.20;;;4.63;;
6269;SDS011;3168;51.684;6.954;2024-01-30T12:29:14;6.60;;;4.30;;
6269;SDS011;3168;51.684;6.954;2024-01-30T12:31:41;5.07;;;4.67;;
6269;SDS011;3168;51.684;6.954;2024-01-30T12:34:06;6.80;;;5.10;;
6269;SDS011;3168;51.684;6.954;2024-01-30T12:36:32;10.90;;;4.73;;
6269;SDS011;3168;51.684;6.954;2024-01-30T12:38:58;4.87;;;4.30;;
6269;SDS011;3168;51.684;6.954;2024-01-30T12:41:24;3.30;;;3.20;;
6269;SDS011;3168;51.684;6.954;2024-01-30T12:43:50;5.80;;;4.07;;
6269;SDS011;3168;51.684;6.954;2024-01-30T12:46:17;3.90;;;3.60;;
6269;SDS011;3168;51.684;6.954;2024-01-30T12:48:43;8.33;;;4.43;;
6269;SDS011;3168;51.684;6.954;2024-01-30T12:51:10;4.73;;;4.30;;
6269;SDS011;3168;51.684;6.954;2024-01-30T12:53:36;3.70;;;3.50;;
6269;SDS011;3168;51.684;6.954;2024-01-30T12:56:02;5.57;;;5.00;;
6269;SDS011;3168;51.684;6.954;2024-01-30T12:58:29;6.87;;;5.03;;
6269;SDS011;3168;51.684;6.954;2024-01-30T13:00:55;7.30;;;4.93;;
6269;SDS011;3168;51.684;6.954;2024-01-30T13:03:21;7.10;;;4.93;;
6269;SDS011;3168;51.684;6.954;2024-01-30T13:05:48;8.97;;;5.47;;
6269;SDS011;3168;51.684;6.954;2024-01-30T13:08:14;4.70;;;4.30;;
6269;SDS011;3168;51.684;6.954;2024-01-30T13:10:40;6.00;;;5.03;;
6269;SDS011;3168;51.684;6.954;2024-01-30T13:13:07;8.77;;;5.00;;
6269;SDS011;3168;51.684;6.954;2024-01-30T13:15:33;6.60;;;4.53;;
6269;SDS011;3168;51.684;6.954;2024-01-30T13:17:59;4.60;;;4.20;;
6269;SDS011;3168;51.684;6.954;2024-01-30T13:20:25;27.83;;;5.70;;
6269;SDS011;3168;51.684;6.954;2024-01-30T13:22:51;4.77;;;4.30;;
6269;SDS011;3168;51.684;6.954;2024-01-30T13:25:17;5.50;;;5.20;;
6269;SDS011;3168;51.684;6.954;2024-01-30T13:27:43;21.73;;;6.10;;
6269;SDS011;3168;51.684;6.954;2024-01-30T13:30:09;5.63;;;4.57;;
6269;SDS011;3168;51.684;6.954;2024-01-30T13:32:36;6.00;;;4.93;;
6269;SDS011;3168;51.684;6.954;2024-01-30T13:35:02;7.50;;;5.07;;
6269;SDS011;3168;51.684;6.954;2024-01-30T13:37:28;4.77;;;4.40;;
6269;SDS011;3168;51.684;6.954;2024-01-30T13:39:55;5.40;;;4.77;;
6269;SDS011;3168;51.684;6.954;2024-01-30T13:42:20;7.93;;;5.40;;
6269;SDS011;3168;51.684;6.954;2024-01-30T13:44:47;9.47;;;5.30;;
6269;SDS011;3168;51.684;6.954;2024-01-30T13:47:13;5.40;;;5.00;;
6269;SDS011;3168;51.684;6.954;2024-01-30T13:49:40;5.07;;;4.67;;
6269;SDS011;3168;51.684;6.954;2024-01-30T13:52:05;4.67;;;4.37;;
6269;SDS011;3168;51.684;6.954;2024-01-30T13:54:32;18.47;;;5.87;;
6269;SDS011;3168;51.684;6.954;2024-01-30T13:56:58;6.30;;;4.90;;
6269;SDS011;3168;51.684;6.954;2024-01-30T13:59:25;6.13;;;5.50;;
6269;SDS011;3168;51.684;6.954;2024-01-30T14:01:51;4.73;;;4.50;;
6269;SDS011;3168;51.684;6.954;2024-01-30T14:04:17;6.53;;;5.33;;
6269;SDS011;3168;51.684;6.954;2024-01-30T14:06:43;5.23;;;4.83;;
6269;SDS011;3168;51.684;6.954;2024-01-30T14:09:09;5.40;;;4.20;;
6269;SDS011;3168;51.684;6.954;2024-01-30T14:11:35;5.00;;;4.60;;
6269;SDS011;3168;51.684;6.954;2024-01-30T14:14:01;4.70;;;4.40;;
6269;SDS011;3168;51.684;6.954;2024-01-30T14:16:27;16.60;;;4.90;;
6269;SDS011;3168;51.684;6.954;2024-01-30T14:18:53;7.47;;;5.13;;
6269;SDS011;3168;51.684;6.954;2024-01-30T14:21:19;17.23;;;4.77;;
6269;SDS011;3168;51.684;6.954;2024-01-30T14:23:45;5.50;;;4.17;;
6269;SDS011;3168;51.684;6.954;2024-01-30T14:26:11;5.07;;;4.67;;
6269;SDS011;3168;51.684;6.954;2024-01-30T14:28:37;6.83;;;5.10;;
6269;SDS011;3168;51.684;6.954;2024-01-30T14:31:03;5.33;;;4.57;;
6269;SDS011;3168;51.684;6.954;2024-01-30T14:33:30;6.37;;;5.07;;
6269;SDS011;3168;51.684;6.954;2024-01-30T14:35:57;5.23;;;4.80;;
6269;SDS011;3168;51.684;6.954;2024-01-30T14:38:23;4.40;;;4.20;;
6269;SDS011;3168;51.684;6.954;2024-01-30T14:40:49;18.70;;;3.73;;
6269;SDS011;3168;51.684;6.954;2024-01-30T14:43:15;9.03;;;3.33;;
6269;SDS011;3168;51.684;6.954;2024-01-30T14:45:41;4.97;;;3.40;;
6269;SDS011;3168;51.684;6.954;2024-01-30T14:48:07;8.00;;;3.87;;
6269;SDS011;3168;51.684;6.954;2024-01-30T14:50:33;4.77;;;3.47;;
6269;SDS011;3168;51.684;6.954;2024-01-30T14:52:59;2.70;;;2.50;;
6269;SDS011;3168;51.684;6.954;2024-01-30T14:55:25;6.93;;;3.30;;
6269;SDS011;3168;51.684;6.954;2024-01-30T14:57:51;10.43;;;4.10;;
6269;SDS011;3168;51.684;6.954;2024-01-30T15:00:17;2.43;;;2.33;;
6269;SDS011;3168;51.684;6.954;2024-01-30T15:02:43;13.17;;;3.10;;
6269;SDS011;3168;51.684;6.954;2024-01-30T15:05:09;2.83;;;2.63;;
6269;SDS011;3168;51.684;6.954;2024-01-30T15:07:35;2.63;;;2.53;;
6269;SDS011;3168;51.684;6.954;2024-01-30T15:10:01;4.10;;;2.00;;
6269;SDS011;3168;51.684;6.954;2024-01-30T15:12:27;2.83;;;2.30;;